KEAU

Chippewa Valley Regional Airport

Eau Claire, Wisconsin, USA
METAR KEAU 201256Z 00000KT 1SM BR VV002 M03/M04 A2981 RMK AO2 SLP106 I1000 T10331039
Observed Flight Rules
Jan-20 @ 12:56 UTC (18 minutes ago) Instrument Flight Rules
Wind Visibility Clouds Conditions
Calm 1 miles
  • Vertical visibility at 200' AGL
  • Mist
Temperatures Readings
Current -3°C / 27°F
Dewpoint -4°C / 25°F
Humidity 93%
Altimeter 29.81" Hg
Pressure 1010.6 hPa
Elevation 276
METAR KEAU 201256Z 00000KT 1SM BR VV002 M03/M04 A2981 RMK AO2 SLP106 I1000 T10331039
Observed Flight Rules
Jan-20 @ 12:56 UTC
(18 minutes ago)
LIFR
Wind Visibility
Calm 1 miles
Clouds
  • Vertical visibility at 200' AGL
Conditions
  • Mist
Temperature Dewpoint
-3°C / 27°F -4°C / 25°F
Humidity Altimeter Pressure
93% 29.81" Hg 1010.6 hPa